GEGSPOKANE INTL
METARs for airports near GEG, sorted by distance:
N 0 nm 2385' KGEG 032253Z 20010KT 10SM FEW041 SCT060 BKN070 03/M06 A2967
W 4 nm 2462' KSKA 032255Z 23013KT 10SM BKN050 BKN060 03/M06 A2965
NE 9 nm 1956' KSFF 032253Z 23012KT 10SM SCT048 BKN060 BKN075 06/M05 A2968
N 21 nm 2210' KDEW 032253Z 23011KT 10SM SCT046 BKN060 OVC070 03/M05 A2967
E 30 nm 2320' KCOE 032256Z 20012KT 10SM FEW049 SCT075 03/M06 A2967
S 55 nm 2566' KPUW 032253Z 29005KT 8SM BKN039 OVC050 01/M03 A2971
NE 56 nm 2131' KSZT 032255Z 12004KT 10SM SCT037 BKN060 01/M03 A2968
W 76 nm 1188' KMWH 032252Z 17009KT 10SM FEW050 07/M04 A2967
S 77 nm 1442' KLWS 032256Z 03003KT 10SM BKN065 OVC080 07/M05 A2971
W 82 nm 1276' KEPH 032253Z 18012G16KT 10SM FEW049 07/M04 A2965
E 91 nm 2467' KTHM 032055Z 31009G14KT 10SM 05/M07 A2972
NW 94 nm 1304' KOMK 032253Z 20007KT 10SM BKN050 OVC070 06/M02 A2966
S 96 nm 1194' KALW 032253Z 24005KT 10SM SCT065 BKN080 06/M04 A2971
TAFs for airports near GEG, sorted by distance:
N 0 nm 2385' KGEG TAF
  AMD KGEG 032133Z 0322/0418 21008KT P6SM VCSH FEW040 SCT070 SCT150
  FM040200 21008KT P6SM BKN100
  FM040700 18005KT 5SM BR SCT035 PROB30 0409/0415 2SM -SN BR BKN035
  FM041500 21009KT 5SM BR BKN020 PROB30 0415/0418 2SM -SN BR OVC015
W 4 nm 2462' KSKA TAF KSKA 031900Z 0319/0501 19008KT 9999 SCT040 BKN070 620704 QNH2964INS
  TEMPO 0320/0324 8000 -SHSN BKN012 610126
  BECMG 0412/0413 23012KT 8000 -SN BKN010 OVC030 620109 QNH2967INS
  BECMG 0418/0419 18012G18KT 9999 NSW BKN050 620503 QNH2975INS TX04/0323Z TNM01/0419Z
NE 9 nm 1956' KSFF KSFF 032028Z 0320/0418 19010KT P6SM VCSH BKN035
  FM040100 21007KT P6SM BKN100 PROB30 0409/0415 2SM -SN BR BKN035
  FM041500 21009KT 5SM BR BKN020 PROB30 0415/0418 2SM -SN BR OVC015
E 30 nm 2320' KCOE KCOE 032229Z 0322/0418 20012KT P6SM VCSH SCT040 BKN050 BKN070
  FM040700 17007KT P6SM SCT035 PROB30 0409/0412 2SM -SN BR OVC015
  FM041500 19010KT 4SM -SN BR OVC020
S 55 nm 2566' KPUW KPUW 032129Z 0321/0418 VRB05KT P6SM VCSH FEW035
  FM040300 17005KT P6SM FEW250
  FM040700 15006KT 5SM BR BKN035 PROB30 0408/0410 2SM -SN BR OVC025
  FM041000 20007KT 2SM -SN BR BKN025
  FM041200 23009KT 5SM BR BKN035 PROB30 0412/0416 2SM -SN BR OVC025
W 76 nm 1188' KMWH TAF KMWH 031726Z 0318/0418 00000KT P6SM SCT070
  FM032000 20007KT P6SM SCT035
  FM040200 20005KT P6SM SCT250
S 77 nm 1442' KLWS TAF KLWS 031726Z 0318/0418 08007KT P6SM SKC
  FM032200 30006KT P6SM BKN035
  FM040100 16005KT P6SM SCT110
  FM040800 12005KT 5SM BR BKN035 PROB30 0409/0415 5SM -SNRA BR OVC025
S 96 nm 1194' KALW KALW 031728Z 0318/0418 22006KT P6SM SCT070
  FM031900 20008KT P6SM VCSH BKN035 BKN090
  FM032200 17006KT P6SM SCT040 BKN150
  FM040700 18008KT P6SM -SHRASN BKN080
  FM041100 19012KT P6SM OVC100

Shortcut to this page: http://wxbay.com.

Data may contain errors.